createdAt,value
2018-06-19T00:00:07.871Z,63.00
2018-06-19T00:00:39.601Z,62.60
2018-06-19T00:01:11.318Z,62.40
2018-06-19T00:01:43.146Z,62.50
2018-06-19T00:02:15.084Z,61.90
2018-06-19T00:02:46.815Z,62.10
2018-06-19T00:03:18.525Z,61.90
2018-06-19T00:04:22.289Z,61.70
2018-06-19T00:04:54.018Z,61.70
2018-06-19T00:05:25.734Z,61.70
2018-06-19T00:05:57.461Z,61.70
2018-06-19T00:06:29.174Z,61.90
2018-06-19T00:07:00.930Z,61.70
2018-06-19T00:07:32.855Z,61.80
2018-06-19T00:08:04.602Z,62.20
2018-06-19T00:08:36.328Z,62.40
2018-06-19T00:09:08.049Z,62.60
2018-06-19T00:09:39.776Z,62.40
2018-06-19T00:10:11.509Z,62.40
2018-06-19T00:10:43.230Z,62.10
2018-06-19T00:11:14.974Z,62.40
2018-06-19T00:11:46.703Z,62.60
2018-06-19T00:12:18.434Z,62.30
2018-06-19T00:12:50.170Z,62.40
2018-06-19T00:13:21.906Z,62.80
2018-06-19T00:13:53.888Z,63.20
2018-06-19T00:14:25.622Z,63.00
2018-06-19T00:14:57.345Z,62.80
2018-06-19T00:15:29.100Z,62.70
2018-06-19T00:16:00.814Z,62.90
2018-06-19T00:16:32.533Z,62.20
2018-06-19T00:17:04.252Z,62.10
2018-06-19T00:17:35.981Z,61.80
2018-06-19T00:18:07.722Z,61.80
2018-06-19T00:18:39.449Z,61.50
2018-06-19T00:19:11.178Z,61.40
2018-06-19T00:19:42.914Z,61.40
2018-06-19T00:20:14.643Z,61.60
2018-06-19T00:20:46.360Z,61.50
2018-06-19T00:21:18.113Z,61.40
2018-06-19T00:21:49.928Z,61.20
2018-06-19T00:22:21.634Z,61.00
2018-06-19T00:22:53.362Z,61.10
2018-06-19T00:23:25.103Z,62.00
2018-06-19T00:23:57.060Z,61.30
2018-06-19T00:24:28.811Z,61.40
2018-06-19T00:25:00.525Z,61.20
2018-06-19T00:25:32.345Z,60.70
2018-06-19T00:26:04.047Z,61.20
2018-06-19T00:26:35.774Z,61.10
2018-06-19T00:27:07.493Z,61.30
2018-06-19T00:27:39.240Z,60.90
2018-06-19T00:28:10.960Z,61.20
2018-06-19T00:28:42.685Z,61.00
2018-06-19T00:29:14.434Z,60.90
2018-06-19T00:29:46.151Z,61.30
2018-06-19T00:30:17.883Z,61.20
2018-06-19T00:30:49.617Z,61.10
2018-06-19T00:31:21.342Z,61.10
2018-06-19T00:31:53.131Z,61.20
2018-06-19T00:32:24.850Z,61.10
2018-06-19T00:32:56.591Z,61.20
2018-06-19T00:33:28.309Z,61.00
2018-06-19T00:34:00.176Z,61.20
2018-06-19T00:34:31.891Z,61.40
2018-06-19T00:35:03.616Z,61.40
2018-06-19T00:35:35.387Z,61.40
2018-06-19T00:36:07.077Z,61.80
2018-06-19T00:36:38.810Z,62.00
2018-06-19T00:37:10.529Z,62.50
2018-06-19T00:37:42.259Z,62.50
2018-06-19T00:38:13.986Z,62.60
2018-06-19T00:38:45.711Z,63.40
2018-06-19T00:39:17.437Z,62.90
2018-06-19T00:39:49.159Z,63.10
2018-06-19T00:40:20.903Z,63.50
2018-06-19T00:40:52.642Z,63.40
2018-06-19T00:41:24.362Z,63.30
2018-06-19T00:41:56.109Z,63.60
2018-06-19T00:42:27.817Z,63.70
2018-06-19T00:42:59.551Z,63.50
2018-06-19T00:43:31.343Z,64.00
2018-06-19T00:44:03.190Z,64.10
2018-06-19T00:44:34.919Z,63.70
2018-06-19T00:45:06.638Z,63.20
2018-06-19T00:45:38.389Z,63.70
2018-06-19T00:46:10.125Z,63.60
2018-06-19T00:46:41.858Z,63.50
2018-06-19T00:47:13.595Z,63.70
2018-06-19T00:47:45.322Z,63.40
2018-06-19T00:48:17.044Z,63.10
2018-06-19T00:48:48.791Z,62.60
2018-06-19T00:49:20.517Z,62.00
2018-06-19T00:49:52.253Z,61.70
2018-06-19T00:50:55.980Z,61.50
2018-06-19T00:51:27.697Z,62.10
2018-06-19T00:51:59.427Z,62.90
2018-06-19T00:52:31.162Z,62.30
2018-06-19T00:53:34.867Z,62.90
2018-06-19T00:54:06.600Z,63.10
2018-06-19T00:54:38.327Z,63.30
2018-06-19T00:55:10.058Z,63.30
2018-06-19T00:55:41.809Z,63.40
2018-06-19T00:56:13.594Z,63.00
2018-06-19T00:56:45.322Z,63.10
2018-06-19T00:57:17.047Z,63.00
2018-06-19T00:57:48.790Z,63.40
2018-06-19T00:58:20.511Z,63.60
2018-06-19T00:58:52.229Z,63.40
2018-06-19T00:59:23.985Z,63.40
2018-06-19T00:59:55.721Z,63.10
2018-06-19T01:00:27.430Z,62.80
2018-06-19T01:00:59.186Z,63.00
2018-06-19T01:01:30.915Z,63.40
2018-06-19T01:02:02.627Z,62.40
2018-06-19T01:02:34.352Z,61.80
2018-06-19T01:03:06.077Z,61.10
2018-06-19T01:03:37.814Z,61.00
2018-06-19T01:04:09.529Z,61.00
2018-06-19T01:04:41.273Z,62.10
2018-06-19T01:05:13.014Z,62.20
2018-06-19T01:05:44.733Z,62.50
2018-06-19T01:06:16.473Z,62.40
2018-06-19T01:06:48.215Z,62.50
2018-06-19T01:07:19.941Z,62.50
2018-06-19T01:07:51.682Z,62.40
2018-06-19T01:08:23.413Z,62.80
2018-06-19T01:08:55.177Z,63.00
2018-06-19T01:09:26.902Z,63.30
2018-06-19T01:09:58.643Z,63.00
2018-06-19T01:10:30.353Z,62.70
2018-06-19T01:11:02.084Z,62.60
2018-06-19T01:11:33.829Z,62.40
2018-06-19T01:12:05.550Z,62.50
2018-06-19T01:12:37.291Z,62.40
2018-06-19T01:13:09.221Z,62.20
2018-06-19T01:13:40.940Z,62.10
2018-06-19T01:14:12.667Z,62.20
2018-06-19T01:14:44.390Z,62.10
2018-06-19T01:15:16.129Z,61.80
2018-06-19T01:15:47.880Z,61.10
2018-06-19T01:16:19.603Z,60.90
2018-06-19T01:16:51.341Z,60.90
2018-06-19T01:17:23.066Z,60.70
2018-06-19T01:17:54.790Z,60.80
2018-06-19T01:18:26.509Z,60.70
2018-06-19T01:18:58.248Z,60.70
2018-06-19T01:19:30.231Z,60.70
2018-06-19T01:20:01.950Z,60.70
2018-06-19T01:20:33.686Z,61.30
2018-06-19T01:21:05.417Z,60.60
2018-06-19T01:21:37.151Z,60.40
2018-06-19T01:22:08.878Z,60.40
2018-06-19T01:22:40.621Z,60.40
2018-06-19T01:23:12.345Z,60.20
2018-06-19T01:23:44.069Z,60.10
2018-06-19T01:24:15.797Z,60.30
2018-06-19T01:24:47.536Z,60.20
2018-06-19T01:25:19.279Z,60.10
2018-06-19T01:25:51.010Z,60.10
2018-06-19T01:26:22.724Z,60.10
2018-06-19T01:26:54.465Z,60.00
2018-06-19T01:27:26.206Z,59.80
2018-06-19T01:27:57.909Z,60.10
2018-06-19T01:28:29.643Z,60.10
2018-06-19T01:29:01.388Z,59.90
2018-06-19T01:29:33.120Z,59.90
2018-06-19T01:30:04.852Z,59.90
2018-06-19T01:30:36.614Z,59.70
2018-06-19T01:31:08.316Z,59.60
2018-06-19T01:31:40.044Z,59.70
2018-06-19T01:32:11.813Z,59.70
2018-06-19T01:32:43.530Z,59.60
2018-06-19T01:33:15.260Z,59.70
2018-06-19T01:33:46.990Z,59.90
2018-06-19T01:34:18.706Z,59.80
2018-06-19T01:34:50.444Z,59.90
2018-06-19T01:35:22.173Z,59.70
2018-06-19T01:35:53.936Z,59.60
2018-06-19T01:36:25.648Z,59.50
2018-06-19T01:37:29.424Z,59.50
2018-06-19T01:38:01.198Z,59.40
2018-06-19T01:38:33.090Z,59.40
2018-06-19T01:39:04.828Z,59.40
2018-06-19T01:39:36.573Z,59.20
2018-06-19T01:40:08.304Z,59.10
2018-06-19T01:40:40.029Z,59.40
2018-06-19T01:41:43.862Z,59.10
2018-06-19T01:42:15.609Z,58.90
2018-06-19T01:42:47.390Z,59.00
2018-06-19T01:43:19.098Z,59.20
2018-06-19T01:43:50.837Z,59.00
2018-06-19T01:44:22.590Z,59.10
2018-06-19T01:44:54.316Z,58.80
2018-06-19T01:45:26.050Z,58.80
2018-06-19T01:45:57.784Z,58.60
2018-06-19T01:46:29.516Z,58.70
2018-06-19T01:47:01.242Z,58.70
2018-06-19T01:47:32.987Z,58.80
2018-06-19T01:48:04.709Z,58.70
2018-06-19T01:48:36.434Z,59.00
2018-06-19T01:49:08.197Z,58.60
2018-06-19T01:49:39.927Z,58.70
2018-06-19T01:50:11.668Z,58.80
2018-06-19T01:50:43.421Z,58.70
2018-06-19T01:51:15.157Z,58.70
2018-06-19T01:51:46.880Z,58.70
2018-06-19T01:52:18.616Z,58.90
2018-06-19T01:52:50.337Z,58.70
2018-06-19T01:53:22.076Z,58.60
2018-06-19T01:53:53.870Z,58.50
2018-06-19T01:54:25.566Z,58.50
2018-06-19T01:54:57.277Z,58.50
2018-06-19T01:55:29.036Z,58.60
2018-06-19T01:56:00.758Z,58.50
2018-06-19T01:56:32.493Z,58.50
2018-06-19T01:57:04.272Z,58.60
2018-06-19T01:57:36.037Z,58.50
2018-06-19T01:58:07.758Z,58.50
2018-06-19T01:58:39.484Z,58.50
2018-06-19T01:59:11.221Z,58.50
2018-06-19T01:59:42.958Z,58.50
2018-06-19T02:00:14.877Z,58.40
2018-06-19T02:01:18.623Z,58.20
2018-06-19T02:01:50.348Z,58.30
2018-06-19T02:02:22.083Z,58.20
2018-06-19T02:02:53.806Z,58.20
2018-06-19T02:03:25.567Z,58.20
2018-06-19T02:03:57.341Z,58.10
2018-06-19T02:04:29.066Z,58.20
2018-06-19T02:05:00.787Z,58.20
2018-06-19T02:05:32.498Z,58.00
2018-06-19T02:06:04.225Z,58.00
2018-06-19T02:06:35.950Z,57.80
2018-06-19T02:07:07.690Z,57.80
2018-06-19T02:07:39.400Z,57.70
2018-06-19T02:08:11.127Z,57.80
2018-06-19T02:08:42.858Z,58.00
2018-06-19T02:09:14.599Z,57.90
2018-06-19T02:09:46.350Z,57.50
2018-06-19T02:10:18.643Z,57.80
2018-06-19T02:10:50.617Z,57.70
2018-06-19T02:11:22.485Z,57.70
2018-06-19T02:11:54.398Z,57.90
2018-06-19T02:12:26.098Z,57.80
2018-06-19T02:12:57.829Z,57.90
2018-06-19T02:13:29.575Z,57.70
2018-06-19T02:14:01.294Z,57.80
2018-06-19T02:14:33.063Z,58.20
2018-06-19T02:15:04.797Z,58.80
2018-06-19T02:15:36.542Z,58.50
2018-06-19T02:16:08.276Z,58.50
2018-06-19T02:16:40.011Z,58.40
2018-06-19T02:17:11.747Z,59.00
2018-06-19T02:17:43.481Z,59.50
2018-06-19T02:18:15.221Z,59.40
2018-06-19T02:18:46.948Z,59.30
2018-06-19T02:19:18.681Z,59.10
2018-06-19T02:19:50.408Z,59.10
2018-06-19T02:20:22.125Z,59.00
2018-06-19T02:20:53.907Z,58.80
2018-06-19T02:21:25.652Z,59.00
2018-06-19T02:21:57.374Z,58.60
2018-06-19T02:22:29.120Z,58.30
2018-06-19T02:23:00.876Z,58.00
2018-06-19T02:23:32.587Z,58.00
2018-06-19T02:24:04.361Z,57.90
2018-06-19T02:24:36.261Z,57.80
2018-06-19T02:25:08.005Z,57.70
2018-06-19T02:25:39.766Z,57.70
2018-06-19T02:26:11.502Z,57.70
2018-06-19T02:26:43.235Z,57.70
2018-06-19T02:27:14.969Z,57.80
2018-06-19T02:27:46.701Z,58.20
2018-06-19T02:28:18.429Z,58.20
2018-06-19T02:28:50.161Z,58.70
2018-06-19T02:29:21.937Z,60.10
2018-06-19T02:29:53.644Z,59.60
2018-06-19T02:30:25.376Z,59.90
2018-06-19T02:30:57.196Z,59.90
2018-06-19T02:31:28.893Z,60.10
2018-06-19T02:32:00.613Z,60.20
2018-06-19T02:32:32.410Z,59.70
2018-06-19T02:33:04.305Z,59.60
2018-06-19T02:33:36.039Z,59.20
2018-06-19T02:34:07.975Z,59.30
2018-06-19T02:34:39.710Z,59.00
2018-06-19T02:35:11.434Z,59.00
2018-06-19T02:35:43.167Z,59.00
2018-06-19T02:36:14.897Z,58.90
2018-06-19T02:36:46.640Z,58.90
2018-06-19T02:37:18.369Z,58.80
2018-06-19T02:37:50.102Z,58.60
2018-06-19T02:38:21.823Z,58.80
2018-06-19T02:38:53.553Z,58.80
2018-06-19T02:39:25.289Z,58.80
2018-06-19T02:39:57.027Z,58.80
2018-06-19T02:40:28.749Z,58.80
2018-06-19T02:41:00.494Z,58.90
2018-06-19T02:41:32.233Z,58.90
2018-06-19T02:42:03.964Z,59.10
2018-06-19T02:42:35.711Z,59.40
2018-06-19T02:43:07.441Z,59.50
2018-06-19T02:43:39.188Z,59.70
2018-06-19T02:44:10.929Z,59.80
2018-06-19T02:44:42.653Z,59.90
2018-06-19T02:45:14.376Z,59.90
2018-06-19T02:45:46.135Z,59.90
2018-06-19T02:46:17.857Z,59.80
2018-06-19T02:46:49.598Z,59.80
2018-06-19T02:47:21.345Z,59.50
2018-06-19T02:48:25.124Z,59.50
2018-06-19T02:48:56.837Z,59.40
2018-06-19T02:49:28.574Z,59.50
2018-06-19T02:50:00.310Z,59.50
2018-06-19T02:50:32.040Z,59.50
2018-06-19T02:51:03.774Z,59.60
2018-06-19T02:51:35.594Z,59.50
2018-06-19T02:52:07.350Z,59.50
2018-06-19T02:52:39.080Z,59.80
2018-06-19T02:53:10.811Z,59.80
2018-06-19T02:53:42.545Z,59.90
2018-06-19T02:54:14.289Z,59.50
2018-06-19T02:54:46.030Z,59.20
2018-06-19T02:55:17.772Z,59.10
2018-06-19T02:55:49.483Z,58.80
2018-06-19T02:56:21.210Z,58.50
2018-06-19T02:56:52.978Z,58.30
2018-06-19T02:57:24.763Z,58.50
2018-06-19T02:57:56.558Z,58.20
2018-06-19T02:58:28.536Z,58.00
2018-06-19T02:59:00.277Z,57.90
2018-06-19T02:59:31.998Z,58.00
2018-06-19T03:00:03.721Z,58.00
2018-06-19T03:01:07.463Z,58.00
2018-06-19T03:01:39.177Z,57.80
2018-06-19T03:02:43.121Z,57.60
2018-06-19T03:03:14.834Z,57.50
2018-06-19T03:03:46.554Z,57.50
2018-06-19T03:04:18.275Z,57.40
2018-06-19T03:04:50.017Z,57.50
2018-06-19T03:05:21.738Z,57.40
2018-06-19T03:05:53.449Z,57.30
2018-06-19T03:06:25.189Z,57.20
2018-06-19T03:06:56.990Z,57.30
2018-06-19T03:07:28.717Z,57.20
2018-06-19T03:08:00.435Z,57.00
2018-06-19T03:08:32.157Z,57.00
2018-06-19T03:09:03.885Z,57.10
2018-06-19T03:09:35.625Z,57.10
2018-06-19T03:10:07.354Z,57.00
2018-06-19T03:10:39.108Z,57.10
2018-06-19T03:11:10.830Z,57.10
2018-06-19T03:11:42.563Z,56.70
2018-06-19T03:12:14.292Z,57.20
2018-06-19T03:12:46.222Z,57.10
2018-06-19T03:13:18.163Z,57.10
2018-06-19T03:13:49.890Z,57.10
2018-06-19T03:14:21.633Z,57.00
2018-06-19T03:14:53.380Z,57.00
2018-06-19T03:15:25.120Z,56.90
2018-06-19T03:15:56.852Z,57.00
2018-06-19T03:16:28.602Z,56.80
2018-06-19T03:17:00.308Z,56.90
2018-06-19T03:17:32.042Z,56.80
2018-06-19T03:18:03.774Z,56.80
2018-06-19T03:18:35.510Z,56.80
2018-06-19T03:19:07.228Z,57.00
2018-06-19T03:19:38.951Z,56.90
2018-06-19T03:20:10.685Z,57.00
2018-06-19T03:20:42.418Z,57.10
2018-06-19T03:21:14.171Z,57.00
2018-06-19T03:21:45.893Z,57.10
2018-06-19T03:22:17.618Z,57.20
2018-06-19T03:22:49.355Z,57.30
2018-06-19T03:23:21.093Z,57.40
2018-06-19T03:23:52.860Z,57.40
2018-06-19T03:24:24.615Z,57.40
2018-06-19T03:24:56.330Z,57.30
2018-06-19T03:25:28.068Z,57.40
2018-06-19T03:25:59.817Z,57.30
2018-06-19T03:26:31.593Z,57.20
2018-06-19T03:27:03.319Z,57.30
2018-06-19T03:27:35.055Z,57.30
2018-06-19T03:28:06.771Z,57.30
2018-06-19T03:28:38.497Z,57.20
2018-06-19T03:29:10.226Z,57.40
2018-06-19T03:29:41.942Z,57.30
2018-06-19T03:30:13.676Z,58.00
2018-06-19T03:30:45.614Z,57.20
2018-06-19T03:31:17.335Z,57.40
2018-06-19T03:31:49.050Z,57.30
2018-06-19T03:32:20.790Z,57.40
2018-06-19T03:32:52.526Z,57.30
2018-06-19T03:33:24.445Z,57.40
2018-06-19T03:33:56.238Z,57.90
2018-06-19T03:34:27.964Z,58.60
2018-06-19T03:34:59.682Z,58.40
2018-06-19T03:35:31.449Z,58.70
2018-06-19T03:36:03.195Z,59.00
2018-06-19T03:36:34.962Z,58.50
2018-06-19T03:37:06.705Z,58.40
2018-06-19T03:37:38.435Z,58.40
2018-06-19T03:38:10.145Z,58.40
2018-06-19T03:38:41.882Z,58.70
2018-06-19T03:39:13.638Z,59.00
2018-06-19T03:39:45.453Z,58.80
2018-06-19T03:40:17.170Z,59.00
2018-06-19T03:40:48.890Z,59.00
2018-06-19T03:41:20.627Z,59.10
2018-06-19T03:41:52.354Z,58.50
2018-06-19T03:42:24.093Z,58.40
2018-06-19T03:42:55.803Z,58.20
2018-06-19T03:43:27.530Z,58.00
2018-06-19T03:43:59.301Z,58.00
2018-06-19T03:44:31.018Z,58.00
2018-06-19T03:45:02.751Z,58.00
2018-06-19T03:45:34.465Z,57.90
2018-06-19T03:46:06.199Z,58.00
2018-06-19T03:46:37.934Z,58.10
2018-06-19T03:47:09.699Z,58.00
2018-06-19T03:47:41.418Z,58.10
2018-06-19T03:48:13.133Z,58.10
2018-06-19T03:48:44.870Z,58.20
2018-06-19T03:49:16.698Z,58.10
2018-06-19T03:49:48.389Z,58.00
2018-06-19T03:50:20.108Z,58.20
2018-06-19T03:50:51.847Z,58.20
2018-06-19T03:51:23.587Z,58.00
2018-06-19T03:51:55.309Z,58.00
2018-06-19T03:52:27.024Z,57.90
2018-06-19T03:52:58.749Z,58.00
2018-06-19T03:53:30.478Z,58.10
2018-06-19T03:54:02.223Z,58.10
2018-06-19T03:54:33.961Z,58.00
2018-06-19T03:55:05.714Z,58.00
2018-06-19T03:55:37.429Z,58.10
2018-06-19T03:56:09.170Z,58.10
2018-06-19T03:56:40.911Z,57.90
2018-06-19T03:57:12.641Z,58.00
2018-06-19T03:57:44.366Z,58.00
2018-06-19T03:58:16.095Z,58.00
2018-06-19T03:58:47.821Z,58.10
2018-06-19T03:59:19.546Z,58.10
2018-06-19T03:59:51.283Z,58.20
2018-06-19T04:00:23.010Z,58.40
2018-06-19T04:00:54.748Z,58.50
2018-06-19T04:01:26.534Z,58.70
2018-06-19T04:01:58.230Z,58.80
2018-06-19T04:02:29.972Z,58.70
2018-06-19T04:03:01.740Z,58.70
2018-06-19T04:03:33.444Z,58.60
2018-06-19T04:04:05.169Z,58.60
2018-06-19T04:04:36.899Z,58.40
2018-06-19T04:05:08.636Z,58.40
2018-06-19T04:05:40.364Z,58.40
2018-06-19T04:06:12.118Z,58.40
2018-06-19T04:06:43.843Z,58.30
2018-06-19T04:07:15.565Z,58.30
2018-06-19T04:07:47.310Z,58.30
2018-06-19T04:08:19.040Z,58.40
2018-06-19T04:08:50.765Z,58.30
2018-06-19T04:09:22.511Z,58.20
2018-06-19T04:09:54.245Z,58.20
2018-06-19T04:10:26.028Z,58.30
2018-06-19T04:10:57.909Z,58.40
2018-06-19T04:11:29.645Z,58.80
2018-06-19T04:12:01.403Z,59.60
2018-06-19T04:12:33.144Z,59.20
2018-06-19T04:13:04.864Z,59.10
2018-06-19T04:13:36.592Z,59.10
2018-06-19T04:14:08.335Z,59.20
2018-06-19T04:14:40.047Z,59.10
2018-06-19T04:15:11.811Z,59.10
2018-06-19T04:15:43.533Z,59.00
2018-06-19T04:16:15.284Z,59.00
2018-06-19T04:16:47.025Z,59.20
2018-06-19T04:17:18.752Z,59.40
2018-06-19T04:17:50.494Z,59.50
2018-06-19T04:18:22.230Z,59.30
2018-06-19T04:18:54.152Z,59.50
2018-06-19T04:19:25.869Z,59.90
2018-06-19T04:19:57.596Z,59.80
2018-06-19T04:20:29.403Z,59.50
2018-06-19T04:21:01.267Z,59.50
2018-06-19T04:21:33.026Z,59.40
2018-06-19T04:22:04.752Z,59.20
2018-06-19T04:22:36.479Z,59.30
2018-06-19T04:23:08.234Z,59.20
2018-06-19T04:23:39.979Z,59.30
2018-06-19T04:24:11.697Z,59.20
2018-06-19T04:24:43.433Z,59.20
2018-06-19T04:25:15.165Z,59.40
2018-06-19T04:25:46.878Z,59.30
2018-06-19T04:26:18.650Z,59.20
2018-06-19T04:26:50.453Z,59.50
2018-06-19T04:27:22.170Z,59.20
2018-06-19T04:27:53.915Z,59.00
2018-06-19T04:28:25.667Z,59.10
2018-06-19T04:28:57.388Z,58.80
2018-06-19T04:29:29.117Z,59.00
2018-06-19T04:30:00.857Z,59.10
2018-06-19T04:30:32.567Z,58.80
2018-06-19T04:31:04.317Z,58.90
2018-06-19T04:31:36.096Z,59.10
2018-06-19T04:32:07.793Z,58.90
2018-06-19T04:32:39.535Z,58.80
2018-06-19T04:33:11.276Z,58.70
2018-06-19T04:33:42.989Z,58.90
2018-06-19T04:34:14.772Z,59.00
2018-06-19T04:34:46.498Z,58.90
2018-06-19T04:35:18.217Z,58.70
2018-06-19T04:35:49.938Z,58.50
2018-06-19T04:36:21.673Z,59.30
2018-06-19T04:36:53.403Z,58.60
2018-06-19T04:37:25.129Z,58.50
2018-06-19T04:37:56.872Z,58.50
2018-06-19T04:38:28.594Z,58.70
2018-06-19T04:39:00.319Z,58.70
2018-06-19T04:39:32.051Z,58.70
2018-06-19T04:40:03.774Z,58.70
2018-06-19T04:40:35.510Z,58.50
2018-06-19T04:41:07.269Z,58.70
2018-06-19T04:41:39.017Z,58.70
2018-06-19T04:42:10.815Z,58.70
2018-06-19T04:42:42.686Z,58.60
2018-06-19T04:43:14.401Z,58.40
2018-06-19T04:43:46.160Z,58.50
2018-06-19T04:44:17.874Z,58.50
2018-06-19T04:44:49.592Z,58.30
2018-06-19T04:45:21.309Z,58.50
2018-06-19T04:45:53.046Z,58.10
2018-06-19T04:46:24.790Z,58.30
2018-06-19T04:46:56.509Z,58.20
2018-06-19T04:47:28.247Z,58.20
2018-06-19T04:47:59.987Z,58.20
2018-06-19T04:48:31.706Z,58.30
2018-06-19T04:49:03.433Z,58.20
2018-06-19T04:49:35.186Z,58.40
2018-06-19T04:50:06.912Z,58.10
2018-06-19T04:50:38.645Z,58.00
2018-06-19T04:51:10.383Z,58.00
2018-06-19T04:51:42.138Z,58.20
2018-06-19T04:52:13.865Z,57.90
2018-06-19T04:52:45.604Z,58.00
2018-06-19T04:53:17.351Z,58.00
2018-06-19T04:53:49.078Z,58.10
2018-06-19T04:54:20.810Z,58.10
2018-06-19T04:54:52.557Z,58.30
2018-06-19T04:55:24.269Z,58.20
2018-06-19T04:55:56.007Z,58.10
2018-06-19T04:56:27.726Z,58.10
2018-06-19T04:56:59.457Z,57.90
2018-06-19T04:57:31.184Z,57.70
2018-06-19T04:58:02.915Z,57.90
2018-06-19T04:58:34.842Z,57.80
2018-06-19T04:59:06.569Z,57.70
2018-06-19T04:59:38.283Z,57.70
2018-06-19T05:00:10.019Z,58.20
2018-06-19T05:00:41.771Z,57.90
2018-06-19T05:01:13.520Z,57.80
2018-06-19T05:01:45.248Z,57.90
2018-06-19T05:02:16.977Z,58.00
2018-06-19T05:02:48.720Z,58.10
2018-06-19T05:03:20.433Z,57.80
2018-06-19T05:03:52.230Z,57.80
2018-06-19T05:04:24.082Z,57.90
2018-06-19T05:04:55.806Z,57.80
2018-06-19T05:05:27.568Z,57.70
2018-06-19T05:05:59.287Z,57.70
2018-06-19T05:06:31.006Z,57.70
2018-06-19T05:07:02.748Z,57.70
2018-06-19T05:07:34.489Z,57.70
2018-06-19T05:08:06.219Z,57.90
2018-06-19T05:08:37.947Z,57.70
2018-06-19T05:09:09.687Z,58.00
2018-06-19T05:09:41.432Z,58.10
2018-06-19T05:10:13.182Z,58.10
2018-06-19T05:10:44.881Z,57.80
2018-06-19T05:11:16.617Z,57.80
2018-06-19T05:11:48.376Z,57.70
2018-06-19T05:12:20.085Z,57.90
2018-06-19T05:12:51.845Z,57.80
2018-06-19T05:13:23.748Z,58.00
2018-06-19T05:13:55.466Z,57.70
2018-06-19T05:14:27.241Z,57.60
2018-06-19T05:14:58.977Z,57.90
2018-06-19T05:15:30.725Z,57.80
2018-06-19T05:16:02.454Z,57.90
2018-06-19T05:16:34.193Z,57.60
2018-06-19T05:17:05.911Z,57.30
2018-06-19T05:17:37.657Z,57.50
2018-06-19T05:18:09.387Z,57.60
2018-06-19T05:18:41.119Z,57.70
2018-06-19T05:19:12.853Z,57.50
2018-06-19T05:19:44.597Z,57.50
2018-06-19T05:20:16.398Z,57.80
2018-06-19T05:20:48.264Z,57.50
2018-06-19T05:21:19.996Z,57.30
2018-06-19T05:21:51.731Z,57.40
2018-06-19T05:22:23.460Z,57.30
2018-06-19T05:22:55.197Z,57.50
2018-06-19T05:23:27.092Z,57.30
2018-06-19T05:23:59.084Z,57.50
2018-06-19T05:24:30.823Z,57.40
2018-06-19T05:25:02.544Z,57.30
2018-06-19T05:25:34.482Z,57.10
2018-06-19T05:26:06.199Z,57.20
2018-06-19T05:26:37.924Z,57.00
2018-06-19T05:27:09.929Z,56.90
2018-06-19T05:27:41.650Z,57.00
2018-06-19T05:28:13.374Z,57.00
2018-06-19T05:28:45.101Z,56.90
2018-06-19T05:29:16.826Z,57.00
2018-06-19T05:29:48.558Z,56.70
2018-06-19T05:30:20.355Z,56.80
2018-06-19T05:30:52.240Z,56.80
2018-06-19T05:31:23.957Z,56.90
2018-06-19T05:31:55.719Z,56.90
2018-06-19T05:32:27.506Z,56.80
2018-06-19T05:32:59.228Z,57.50
2018-06-19T05:33:31.062Z,57.00
2018-06-19T05:34:02.763Z,56.90
2018-06-19T05:34:34.515Z,56.90
2018-06-19T05:35:06.286Z,57.10
2018-06-19T05:35:38.174Z,57.00
2018-06-19T05:36:09.906Z,56.90
2018-06-19T05:36:41.630Z,57.00
2018-06-19T05:37:13.371Z,57.00
2018-06-19T05:37:45.094Z,56.90
2018-06-19T05:38:16.842Z,56.80
2018-06-19T05:38:48.586Z,56.90
2018-06-19T05:39:20.312Z,56.80
2018-06-19T05:39:52.039Z,56.60
2018-06-19T05:40:23.783Z,56.70
2018-06-19T05:40:55.550Z,56.70
2018-06-19T05:41:27.431Z,56.70
2018-06-19T05:41:59.221Z,56.60
2018-06-19T05:42:30.945Z,56.60
2018-06-19T05:43:02.689Z,56.40
2018-06-19T05:43:34.406Z,56.40
2018-06-19T05:44:06.133Z,56.10
2018-06-19T05:44:37.893Z,55.90
2018-06-19T05:45:09.594Z,56.10
2018-06-19T05:45:41.324Z,56.10
2018-06-19T05:46:13.075Z,56.10
2018-06-19T05:46:44.994Z,56.10
2018-06-19T05:47:16.797Z,56.00
2018-06-19T05:47:48.518Z,55.90
2018-06-19T05:48:20.268Z,55.90
2018-06-19T05:48:52.018Z,55.90
2018-06-19T05:49:23.734Z,56.20
2018-06-19T05:49:55.465Z,56.00
2018-06-19T05:50:27.209Z,55.80
2018-06-19T05:50:58.967Z,55.70
2018-06-19T05:51:30.690Z,55.40
2018-06-19T05:52:02.431Z,55.50
2018-06-19T05:52:34.147Z,55.40
2018-06-19T05:53:05.885Z,55.20
2018-06-19T05:53:37.622Z,55.20
2018-06-19T05:54:09.349Z,55.30
2018-06-19T05:54:41.077Z,55.30
2018-06-19T05:55:12.813Z,55.30
2018-06-19T05:55:44.561Z,55.20
2018-06-19T05:56:16.300Z,55.20
2018-06-19T05:56:48.138Z,55.30
2018-06-19T05:57:19.883Z,55.20
2018-06-19T05:57:51.606Z,55.30
2018-06-19T05:58:23.332Z,55.30
2018-06-19T05:58:55.062Z,55.20
2018-06-19T05:59:26.794Z,55.20
2018-06-19T06:00:30.502Z,55.50
2018-06-19T06:01:02.224Z,55.40
2018-06-19T06:01:33.967Z,55.20
2018-06-19T06:02:05.697Z,55.10
2018-06-19T06:02:37.640Z,55.20
2018-06-19T06:03:09.360Z,55.30
2018-06-19T06:03:41.080Z,55.30
2018-06-19T06:04:44.822Z,55.40
2018-06-19T06:05:16.557Z,55.30
2018-06-19T06:05:48.403Z,55.30
2018-06-19T06:06:20.242Z,55.30
2018-06-19T06:06:51.975Z,55.20
2018-06-19T06:07:23.729Z,55.30
2018-06-19T06:07:55.519Z,55.40
2018-06-19T06:08:27.237Z,55.20
2018-06-19T06:08:58.969Z,55.20
2018-06-19T06:09:30.714Z,55.30
2018-06-19T06:10:02.441Z,55.20
2018-06-19T06:10:34.186Z,55.10
2018-06-19T06:11:06.127Z,55.00
2018-06-19T06:11:38.004Z,55.20
2018-06-19T06:12:09.735Z,55.20
2018-06-19T06:12:41.485Z,55.00
2018-06-19T06:13:13.206Z,55.00
2018-06-19T06:13:44.924Z,55.10
2018-06-19T06:14:16.704Z,55.00
2018-06-19T06:14:48.388Z,55.10
2018-06-19T06:15:20.117Z,54.80
2018-06-19T06:15:51.861Z,54.80
2018-06-19T06:16:23.624Z,54.80
2018-06-19T06:16:55.518Z,54.90
2018-06-19T06:17:27.454Z,54.80
2018-06-19T06:17:59.184Z,54.70
2018-06-19T06:18:30.901Z,54.70
2018-06-19T06:19:02.633Z,54.70
2018-06-19T06:19:34.347Z,54.80
2018-06-19T06:20:06.083Z,54.70
2018-06-19T06:20:37.832Z,54.80
2018-06-19T06:21:09.540Z,54.80
2018-06-19T06:21:41.270Z,54.90
2018-06-19T06:22:13.015Z,55.20
2018-06-19T06:22:44.765Z,54.60
2018-06-19T06:23:16.486Z,54.70
2018-06-19T06:23:48.229Z,54.80
2018-06-19T06:24:19.932Z,54.60
2018-06-19T06:24:51.672Z,54.70
2018-06-19T06:25:23.403Z,54.80
2018-06-19T06:25:55.114Z,54.70
2018-06-19T06:26:26.845Z,54.80
2018-06-19T06:26:58.594Z,54.90
2018-06-19T06:27:30.331Z,54.80
2018-06-19T06:28:02.061Z,54.80
2018-06-19T06:28:33.790Z,54.80
2018-06-19T06:29:05.517Z,54.70
2018-06-19T06:29:37.281Z,54.80
2018-06-19T06:30:09.030Z,54.80
2018-06-19T06:30:40.748Z,54.70
2018-06-19T06:31:12.540Z,54.70
2018-06-19T06:31:44.403Z,54.80
2018-06-19T06:32:16.130Z,55.00
2018-06-19T06:32:47.906Z,54.90
2018-06-19T06:33:19.640Z,54.80
2018-06-19T06:33:51.358Z,54.90
2018-06-19T06:34:23.102Z,55.10
2018-06-19T06:34:54.951Z,55.00
2018-06-19T06:35:26.639Z,55.10
2018-06-19T06:35:58.372Z,55.00
2018-06-19T06:36:30.081Z,55.00
2018-06-19T06:37:01.813Z,55.10
2018-06-19T06:37:33.733Z,55.20
2018-06-19T06:38:05.459Z,55.30
2018-06-19T06:38:37.174Z,54.90
2018-06-19T06:39:08.905Z,54.70
2018-06-19T06:39:40.645Z,54.90
2018-06-19T06:40:12.368Z,55.00
2018-06-19T06:41:16.130Z,55.50
2018-06-19T06:41:47.853Z,55.40
2018-06-19T06:42:19.574Z,55.10
2018-06-19T06:42:51.414Z,55.00
2018-06-19T06:43:23.102Z,55.00
2018-06-19T06:43:54.829Z,55.00
2018-06-19T06:44:26.774Z,55.10
2018-06-19T06:44:58.514Z,55.00
2018-06-19T06:45:30.261Z,55.00
2018-06-19T06:46:02.014Z,55.70
2018-06-19T06:46:33.734Z,55.20
2018-06-19T06:47:05.482Z,55.00
2018-06-19T06:47:37.223Z,54.90
2018-06-19T06:48:09.138Z,55.40
2018-06-19T06:48:40.870Z,55.30
2018-06-19T06:49:12.590Z,55.10
2018-06-19T06:49:44.354Z,55.90
2018-06-19T06:50:16.128Z,54.90
2018-06-19T06:50:48.012Z,54.80
2018-06-19T06:51:19.743Z,54.90
2018-06-19T06:51:51.483Z,55.00
2018-06-19T06:52:23.190Z,54.90
2018-06-19T06:52:54.917Z,55.00
2018-06-19T06:53:26.658Z,55.10
2018-06-19T06:53:58.370Z,55.00
2018-06-19T06:54:30.097Z,54.70
2018-06-19T06:55:01.821Z,54.80